sensor_id;sensor_type;location;lat;lon;timestamp;pressure;altitude;pressure_sealevel;temperature;humidity
2000;BME280;1001;48.87406500;9.59633600;2023-02-20T00:00:21;96086.63;;;7.38;100.00
2000;BME280;1001;48.87406500;9.59633600;2023-02-20T00:02:49;96078.16;;;7.36;100.00
2000;BME280;1001;48.87406500;9.59633600;2023-02-20T00:05:17;96081.78;;;7.35;100.00
2000;BME280;1001;48.87406500;9.59633600;2023-02-20T00:07:44;96078.38;;;7.34;100.00
2000;BME280;1001;48.87406500;9.59633600;2023-02-20T00:10:12;96086.53;;;7.31;100.00
2000;BME280;1001;48.87406500;9.59633600;2023-02-20T00:12:39;96084.94;;;7.30;100.00
2000;BME280;1001;48.87406500;9.59633600;2023-02-20T00:15:07;96073.91;;;7.28;100.00
2000;BME280;1001;48.87406500;9.59633600;2023-02-20T00:17:33;96082.94;;;7.32;100.00
2000;BME280;1001;48.87406500;9.59633600;2023-02-20T00:20:00;96078.00;;;7.37;100.00
2000;BME280;1001;48.87406500;9.59633600;2023-02-20T00:22:27;96071.97;;;7.37;100.00
2000;BME280;1001;48.87406500;9.59633600;2023-02-20T00:24:56;96070.13;;;7.31;100.00
2000;BME280;1001;48.87406500;9.59633600;2023-02-20T00:27:24;96071.06;;;7.23;100.00
2000;BME280;1001;48.87406500;9.59633600;2023-02-20T00:29:51;96075.34;;;7.31;100.00
2000;BME280;1001;48.87406500;9.59633600;2023-02-20T00:32:17;96067.63;;;7.23;100.00
2000;BME280;1001;48.87406500;9.59633600;2023-02-20T00:34:44;96085.09;;;7.29;100.00
2000;BME280;1001;48.87406500;9.59633600;2023-02-20T00:37:10;96088.00;;;7.19;100.00
2000;BME280;1001;48.87406500;9.59633600;2023-02-20T00:39:37;96095.44;;;7.22;100.00
2000;BME280;1001;48.87406500;9.59633600;2023-02-20T00:42:04;96096.06;;;7.24;100.00
2000;BME280;1001;48.87406500;9.59633600;2023-02-20T00:44:32;96100.75;;;7.14;100.00
2000;BME280;1001;48.87406500;9.59633600;2023-02-20T00:46:58;96097.78;;;7.17;100.00
2000;BME280;1001;48.87406500;9.59633600;2023-02-20T00:49:25;96108.91;;;7.26;100.00
2000;BME280;1001;48.87406500;9.59633600;2023-02-20T00:51:51;96104.31;;;7.28;100.00
2000;BME280;1001;48.87406500;9.59633600;2023-02-20T00:54:18;96107.09;;;7.26;100.00
2000;BME280;1001;48.87406500;9.59633600;2023-02-20T00:56:45;96112.47;;;7.25;100.00
2000;BME280;1001;48.87406500;9.59633600;2023-02-20T00:59:15;96102.44;;;7.22;100.00
2000;BME280;1001;48.87406500;9.59633600;2023-02-20T01:01:43;96097.78;;;7.17;100.00
2000;BME280;1001;48.87406500;9.59633600;2023-02-20T01:04:09;96092.97;;;7.14;100.00
2000;BME280;1001;48.87406500;9.59633600;2023-02-20T01:06:36;96085.06;;;7.08;100.00
2000;BME280;1001;48.87406500;9.59633600;2023-02-20T01:09:03;96086.22;;;7.05;100.00
2000;BME280;1001;48.87406500;9.59633600;2023-02-20T01:11:29;96086.16;;;6.99;100.00
2000;BME280;1001;48.87406500;9.59633600;2023-02-20T01:13:56;96088.13;;;6.97;100.00
2000;BME280;1001;48.87406500;9.59633600;2023-02-20T01:16:22;96084.38;;;6.99;100.00
2000;BME280;1001;48.87406500;9.59633600;2023-02-20T01:18:51;96091.81;;;7.02;100.00
2000;BME280;1001;48.87406500;9.59633600;2023-02-20T01:21:17;96082.72;;;7.13;100.00
2000;BME280;1001;48.87406500;9.59633600;2023-02-20T01:23:44;96078.59;;;7.18;100.00
2000;BME280;1001;48.87406500;9.59633600;2023-02-20T01:26:11;96075.38;;;7.16;100.00
2000;BME280;1001;48.87406500;9.59633600;2023-02-20T01:28:38;96073.59;;;7.17;100.00
2000;BME280;1001;48.87406500;9.59633600;2023-02-20T01:31:06;96085.16;;;7.14;100.00
2000;BME280;1001;48.87406500;9.59633600;2023-02-20T01:33:32;96076.00;;;7.18;100.00
2000;BME280;1001;48.87406500;9.59633600;2023-02-20T01:36:00;96071.97;;;7.16;100.00
2000;BME280;1001;48.87406500;9.59633600;2023-02-20T01:38:27;96068.69;;;7.07;100.00
2000;BME280;1001;48.87406500;9.59633600;2023-02-20T01:40:54;96073.94;;;7.14;100.00
2000;BME280;1001;48.87406500;9.59633600;2023-02-20T01:43:20;96075.66;;;7.07;100.00
2000;BME280;1001;48.87406500;9.59633600;2023-02-20T01:45:47;96081.16;;;6.97;100.00
2000;BME280;1001;48.87406500;9.59633600;2023-02-20T01:48:22;96076.94;;;6.96;100.00
2000;BME280;1001;48.87406500;9.59633600;2023-02-20T01:50:52;96066.81;;;6.86;100.00
2000;BME280;1001;48.87406500;9.59633600;2023-02-20T01:53:23;96063.44;;;6.71;100.00
2000;BME280;1001;48.87406500;9.59633600;2023-02-20T01:55:54;96068.09;;;6.61;100.00
2000;BME280;1001;48.87406500;9.59633600;2023-02-20T01:58:24;96065.06;;;6.58;100.00
2000;BME280;1001;48.87406500;9.59633600;2023-02-20T02:00:52;96074.13;;;6.47;100.00
2000;BME280;1001;48.87406500;9.59633600;2023-02-20T02:03:22;96062.47;;;6.43;100.00
2000;BME280;1001;48.87406500;9.59633600;2023-02-20T02:05:53;96055.75;;;6.34;100.00
2000;BME280;1001;48.87406500;9.59633600;2023-02-20T02:08:23;96043.66;;;6.27;100.00
2000;BME280;1001;48.87406500;9.59633600;2023-02-20T02:10:53;96045.63;;;6.25;100.00
2000;BME280;1001;48.87406500;9.59633600;2023-02-20T02:13:25;96053.78;;;6.22;100.00
2000;BME280;1001;48.87406500;9.59633600;2023-02-20T02:15:52;96051.88;;;6.15;100.00
2000;BME280;1001;48.87406500;9.59633600;2023-02-20T02:18:34;96042.50;;;6.14;100.00
2000;BME280;1001;48.87406500;9.59633600;2023-02-20T02:21:28;96035.41;;;6.08;100.00
2000;BME280;1001;48.87406500;9.59633600;2023-02-20T02:27:29;96041.59;;;6.07;100.00
2000;BME280;1001;48.87406500;9.59633600;2023-02-20T02:30:26;96035.41;;;5.94;100.00
2000;BME280;1001;48.87406500;9.59633600;2023-02-20T02:33:26;96039.88;;;6.00;100.00
2000;BME280;1001;48.87406500;9.59633600;2023-02-20T02:36:26;96040.06;;;5.98;100.00
2000;BME280;1001;48.87406500;9.59633600;2023-02-20T02:39:01;96027.97;;;5.91;100.00
2000;BME280;1001;48.87406500;9.59633600;2023-02-20T02:41:37;96026.19;;;5.91;100.00
2000;BME280;1001;48.87406500;9.59633600;2023-02-20T02:44:13;96037.88;;;5.87;100.00
2000;BME280;1001;48.87406500;9.59633600;2023-02-20T02:46:45;96028.50;;;5.86;100.00
2000;BME280;1001;48.87406500;9.59633600;2023-02-20T02:49:19;96036.09;;;5.88;100.00
2000;BME280;1001;48.87406500;9.59633600;2023-02-20T02:51:53;96034.41;;;5.95;100.00
2000;BME280;1001;48.87406500;9.59633600;2023-02-20T02:54:25;96028.59;;;5.93;100.00
2000;BME280;1001;48.87406500;9.59633600;2023-02-20T02:56:53;96035.13;;;5.89;100.00
2000;BME280;1001;48.87406500;9.59633600;2023-02-20T02:59:23;96034.75;;;5.92;100.00
2000;BME280;1001;48.87406500;9.59633600;2023-02-20T03:01:54;96028.13;;;5.89;100.00
2000;BME280;1001;48.87406500;9.59633600;2023-02-20T03:04:26;96029.75;;;5.90;100.00
2000;BME280;1001;48.87406500;9.59633600;2023-02-20T03:06:58;96026.56;;;5.80;100.00
2000;BME280;1001;48.87406500;9.59633600;2023-02-20T03:09:28;96017.81;;;5.81;100.00
2000;BME280;1001;48.87406500;9.59633600;2023-02-20T03:11:57;96030.31;;;5.78;100.00
2000;BME280;1001;48.87406500;9.59633600;2023-02-20T03:14:27;96033.72;;;5.78;100.00
2000;BME280;1001;48.87406500;9.59633600;2023-02-20T03:17:19;96033.72;;;5.78;100.00
2000;BME280;1001;48.87406500;9.59633600;2023-02-20T03:19:53;96041.16;;;5.81;100.00
2000;BME280;1001;48.87406500;9.59633600;2023-02-20T03:22:25;96023.97;;;5.80;100.00
2000;BME280;1001;48.87406500;9.59633600;2023-02-20T03:24:55;96027.03;;;5.84;100.00
2000;BME280;1001;48.87406500;9.59633600;2023-02-20T03:27:29;96024.50;;;5.98;100.00
2000;BME280;1001;48.87406500;9.59633600;2023-02-20T03:30:07;96027.00;;;6.06;100.00
2000;BME280;1001;48.87406500;9.59633600;2023-02-20T03:32:36;96036.56;;;6.21;100.00
2000;BME280;1001;48.87406500;9.59633600;2023-02-20T03:35:23;96031.22;;;6.22;100.00
2000;BME280;1001;48.87406500;9.59633600;2023-02-20T03:38:12;96035.31;;;6.16;100.00
2000;BME280;1001;48.87406500;9.59633600;2023-02-20T03:40:58;96029.94;;;6.18;100.00
2000;BME280;1001;48.87406500;9.59633600;2023-02-20T03:43:44;96033.00;;;6.22;100.00
2000;BME280;1001;48.87406500;9.59633600;2023-02-20T03:46:20;96037.31;;;6.29;100.00
2000;BME280;1001;48.87406500;9.59633600;2023-02-20T03:48:52;96045.88;;;6.30;100.00
2000;BME280;1001;48.87406500;9.59633600;2023-02-20T03:51:20;96040.16;;;6.34;100.00
2000;BME280;1001;48.87406500;9.59633600;2023-02-20T03:54:06;96045.19;;;6.36;100.00
2000;BME280;1001;48.87406500;9.59633600;2023-02-20T03:56:39;96037.75;;;6.33;100.00
2000;BME280;1001;48.87406500;9.59633600;2023-02-20T03:59:11;96043.22;;;6.38;100.00
2000;BME280;1001;48.87406500;9.59633600;2023-02-20T04:01:41;96039.44;;;6.40;100.00
2000;BME280;1001;48.87406500;9.59633600;2023-02-20T04:04:11;96041.44;;;6.38;100.00
2000;BME280;1001;48.87406500;9.59633600;2023-02-20T04:06:40;96046.78;;;6.37;100.00
2000;BME280;1001;48.87406500;9.59633600;2023-02-20T04:09:13;96031.94;;;6.45;100.00
2000;BME280;1001;48.87406500;9.59633600;2023-02-20T04:11:47;96036.31;;;6.45;100.00
2000;BME280;1001;48.87406500;9.59633600;2023-02-20T04:14:17;96035.22;;;6.54;100.00
2000;BME280;1001;48.87406500;9.59633600;2023-02-20T04:16:48;96035.78;;;6.49;100.00
2000;BME280;1001;48.87406500;9.59633600;2023-02-20T04:19:18;96035.84;;;6.56;100.00
2000;BME280;1001;48.87406500;9.59633600;2023-02-20T04:21:48;96030.84;;;6.54;100.00
2000;BME280;1001;48.87406500;9.59633600;2023-02-20T04:24:21;96026.81;;;6.52;100.00
2000;BME280;1001;48.87406500;9.59633600;2023-02-20T04:26:49;96019.63;;;6.54;100.00
2000;BME280;1001;48.87406500;9.59633600;2023-02-20T04:29:15;96026.34;;;6.63;100.00
2000;BME280;1001;48.87406500;9.59633600;2023-02-20T04:31:42;96023.94;;;6.61;100.00
2000;BME280;1001;48.87406500;9.59633600;2023-02-20T04:34:09;96021.88;;;6.57;100.00
2000;BME280;1001;48.87406500;9.59633600;2023-02-20T04:36:35;96012.72;;;6.61;100.00
2000;BME280;1001;48.87406500;9.59633600;2023-02-20T04:39:02;96012.75;;;6.46;100.00
2000;BME280;1001;48.87406500;9.59633600;2023-02-20T04:41:30;96012.31;;;6.28;100.00
2000;BME280;1001;48.87406500;9.59633600;2023-02-20T04:43:57;96024.06;;;6.24;100.00
2000;BME280;1001;48.87406500;9.59633600;2023-02-20T04:46:37;96018.88;;;6.24;100.00
2000;BME280;1001;48.87406500;9.59633600;2023-02-20T04:49:06;96022.78;;;6.20;100.00
2000;BME280;1001;48.87406500;9.59633600;2023-02-20T04:51:33;96028.72;;;6.29;100.00
2000;BME280;1001;48.87406500;9.59633600;2023-02-20T04:54:00;96027.34;;;6.18;100.00
2000;BME280;1001;48.87406500;9.59633600;2023-02-20T04:56:27;96025.75;;;6.17;100.00
2000;BME280;1001;48.87406500;9.59633600;2023-02-20T04:58:55;96031.09;;;6.15;100.00
2000;BME280;1001;48.87406500;9.59633600;2023-02-20T05:01:22;96034.31;;;6.17;100.00
2000;BME280;1001;48.87406500;9.59633600;2023-02-20T05:03:48;96035.69;;;6.13;100.00
2000;BME280;1001;48.87406500;9.59633600;2023-02-20T05:06:15;96026.63;;;6.09;100.00
2000;BME280;1001;48.87406500;9.59633600;2023-02-20T05:08:42;96037.56;;;6.05;100.00
2000;BME280;1001;48.87406500;9.59633600;2023-02-20T05:11:08;96030.22;;;6.08;100.00
2000;BME280;1001;48.87406500;9.59633600;2023-02-20T05:13:35;96027.34;;;6.03;100.00
2000;BME280;1001;48.87406500;9.59633600;2023-02-20T05:16:03;96026.72;;;6.01;100.00
2000;BME280;1001;48.87406500;9.59633600;2023-02-20T05:18:30;96031.63;;;5.96;100.00
2000;BME280;1001;48.87406500;9.59633600;2023-02-20T05:20:57;96031.53;;;5.90;100.00
2000;BME280;1001;48.87406500;9.59633600;2023-02-20T05:23:41;96033.84;;;5.85;100.00
2000;BME280;1001;48.87406500;9.59633600;2023-02-20T05:26:08;96039.53;;;5.80;100.00
2000;BME280;1001;48.87406500;9.59633600;2023-02-20T05:28:38;96037.75;;;5.81;100.00
2000;BME280;1001;48.87406500;9.59633600;2023-02-20T05:31:06;96030.84;;;5.73;100.00
2000;BME280;1001;48.87406500;9.59633600;2023-02-20T05:33:33;96032.38;;;5.68;100.00
2000;BME280;1001;48.87406500;9.59633600;2023-02-20T05:35:59;96021.00;;;5.69;100.00
2000;BME280;1001;48.87406500;9.59633600;2023-02-20T05:38:26;96029.59;;;5.69;100.00
2000;BME280;1001;48.87406500;9.59633600;2023-02-20T05:40:53;96035.13;;;5.66;100.00
2000;BME280;1001;48.87406500;9.59633600;2023-02-20T05:43:19;96024.59;;;5.68;100.00
2000;BME280;1001;48.87406500;9.59633600;2023-02-20T05:45:49;96033.09;;;5.76;100.00
2000;BME280;1001;48.87406500;9.59633600;2023-02-20T05:48:17;96039.91;;;5.77;100.00
2000;BME280;1001;48.87406500;9.59633600;2023-02-20T05:50:44;96020.94;;;5.77;100.00
2000;BME280;1001;48.87406500;9.59633600;2023-02-20T05:53:10;96045.19;;;5.84;100.00
2000;BME280;1001;48.87406500;9.59633600;2023-02-20T05:55:37;96036.31;;;5.78;100.00
2000;BME280;1001;48.87406500;9.59633600;2023-02-20T05:58:03;96035.50;;;5.78;100.00
2000;BME280;1001;48.87406500;9.59633600;2023-02-20T06:00:30;96029.16;;;5.80;100.00
2000;BME280;1001;48.87406500;9.59633600;2023-02-20T06:02:57;96032.00;;;5.71;100.00
2000;BME280;1001;48.87406500;9.59633600;2023-02-20T06:05:25;96023.88;;;5.74;100.00
2000;BME280;1001;48.87406500;9.59633600;2023-02-20T06:07:52;96031.66;;;5.74;100.00
2000;BME280;1001;48.87406500;9.59633600;2023-02-20T06:10:19;96035.22;;;5.73;100.00
2000;BME280;1001;48.87406500;9.59633600;2023-02-20T06:12:46;96037.56;;;5.68;100.00
2000;BME280;1001;48.87406500;9.59633600;2023-02-20T06:15:12;96040.66;;;5.63;100.00
2000;BME280;1001;48.87406500;9.59633600;2023-02-20T06:17:39;96045.50;;;5.66;100.00
2000;BME280;1001;48.87406500;9.59633600;2023-02-20T06:20:06;96044.81;;;5.72;100.00
2000;BME280;1001;48.87406500;9.59633600;2023-02-20T06:22:35;96047.47;;;5.64;100.00
2000;BME280;1001;48.87406500;9.59633600;2023-02-20T06:25:03;96052.66;;;5.64;100.00
2000;BME280;1001;48.87406500;9.59633600;2023-02-20T06:27:33;96044.00;;;5.72;100.00
2000;BME280;1001;48.87406500;9.59633600;2023-02-20T06:30:00;96045.44;;;5.74;100.00
2000;BME280;1001;48.87406500;9.59633600;2023-02-20T06:32:27;96056.72;;;5.81;100.00
2000;BME280;1001;48.87406500;9.59633600;2023-02-20T06:34:53;96047.63;;;5.85;100.00
2000;BME280;1001;48.87406500;9.59633600;2023-02-20T06:37:20;96044.84;;;5.87;100.00
2000;BME280;1001;48.87406500;9.59633600;2023-02-20T06:39:48;96040.16;;;5.82;100.00
2000;BME280;1001;48.87406500;9.59633600;2023-02-20T06:42:15;96040.47;;;5.87;100.00
2000;BME280;1001;48.87406500;9.59633600;2023-02-20T06:44:42;96054.59;;;5.85;100.00
2000;BME280;1001;48.87406500;9.59633600;2023-02-20T06:47:08;96054.88;;;5.90;100.00
2000;BME280;1001;48.87406500;9.59633600;2023-02-20T06:49:35;96064.31;;;5.91;100.00
2000;BME280;1001;48.87406500;9.59633600;2023-02-20T06:52:03;96054.81;;;5.98;100.00
2000;BME280;1001;48.87406500;9.59633600;2023-02-20T06:54:29;96050.16;;;5.93;100.00
2000;BME280;1001;48.87406500;9.59633600;2023-02-20T06:56:58;96073.63;;;6.00;100.00
2000;BME280;1001;48.87406500;9.59633600;2023-02-20T06:59:25;96062.78;;;5.96;100.00
2000;BME280;1001;48.87406500;9.59633600;2023-02-20T07:01:53;96077.19;;;5.99;100.00
2000;BME280;1001;48.87406500;9.59633600;2023-02-20T07:04:22;96073.91;;;6.05;100.00
2000;BME280;1001;48.87406500;9.59633600;2023-02-20T07:06:50;96069.00;;;6.10;100.00
2000;BME280;1001;48.87406500;9.59633600;2023-02-20T07:09:17;96065.94;;;6.06;100.00
2000;BME280;1001;48.87406500;9.59633600;2023-02-20T07:11:44;96066.41;;;6.10;100.00
2000;BME280;1001;48.87406500;9.59633600;2023-02-20T07:14:13;96078.13;;;6.21;100.00
2000;BME280;1001;48.87406500;9.59633600;2023-02-20T07:16:39;96078.94;;;6.21;100.00
2000;BME280;1001;48.87406500;9.59633600;2023-02-20T07:19:06;96074.56;;;6.22;100.00
2000;BME280;1001;48.87406500;9.59633600;2023-02-20T07:21:33;96082.91;;;6.32;100.00
2000;BME280;1001;48.87406500;9.59633600;2023-02-20T07:23:59;96060.13;;;6.19;100.00
2000;BME280;1001;48.87406500;9.59633600;2023-02-20T07:26:27;96076.53;;;6.20;100.00
2000;BME280;1001;48.87406500;9.59633600;2023-02-20T07:28:55;96072.66;;;6.15;100.00
2000;BME280;1001;48.87406500;9.59633600;2023-02-20T07:31:24;96080.09;;;6.18;100.00
2000;BME280;1001;48.87406500;9.59633600;2023-02-20T07:33:51;96074.34;;;6.08;100.00
2000;BME280;1001;48.87406500;9.59633600;2023-02-20T07:36:18;96080.09;;;6.18;100.00
2000;BME280;1001;48.87406500;9.59633600;2023-02-20T07:38:52;96077.59;;;6.25;100.00
2000;BME280;1001;48.87406500;9.59633600;2023-02-20T07:41:19;96071.78;;;6.23;100.00
2000;BME280;1001;48.87406500;9.59633600;2023-02-20T07:43:45;96060.50;;;6.31;100.00
2000;BME280;1001;48.87406500;9.59633600;2023-02-20T07:46:12;96066.75;;;6.51;100.00
2000;BME280;1001;48.87406500;9.59633600;2023-02-20T07:48:40;96065.59;;;6.53;100.00
2000;BME280;1001;48.87406500;9.59633600;2023-02-20T07:51:06;96070.09;;;6.59;99.49
2000;BME280;1001;48.87406500;9.59633600;2023-02-20T07:53:33;96064.16;;;6.65;99.43
2000;BME280;1001;48.87406500;9.59633600;2023-02-20T07:56:00;96071.25;;;6.71;98.59
2000;BME280;1001;48.87406500;9.59633600;2023-02-20T07:58:26;96075.34;;;6.80;98.50
2000;BME280;1001;48.87406500;9.59633600;2023-02-20T08:00:53;96065.56;;;6.82;97.67
2000;BME280;1001;48.87406500;9.59633600;2023-02-20T08:03:20;96072.63;;;6.88;97.24
2000;BME280;1001;48.87406500;9.59633600;2023-02-20T08:05:48;96071.28;;;7.07;96.91
2000;BME280;1001;48.87406500;9.59633600;2023-02-20T08:08:14;96070.13;;;7.31;96.88
2000;BME280;1001;48.87406500;9.59633600;2023-02-20T08:10:41;96073.41;;;7.39;95.57
2000;BME280;1001;48.87406500;9.59633600;2023-02-20T08:13:07;96070.94;;;7.52;95.44
2000;BME280;1001;48.87406500;9.59633600;2023-02-20T08:15:34;96073.31;;;7.69;95.14
2000;BME280;1001;48.87406500;9.59633600;2023-02-20T08:18:01;96065.75;;;7.74;93.86
2000;BME280;1001;48.87406500;9.59633600;2023-02-20T08:20:27;96063.31;;;7.72;92.78
2000;BME280;1001;48.87406500;9.59633600;2023-02-20T08:22:55;96061.16;;;7.76;93.03
2000;BME280;1001;48.87406500;9.59633600;2023-02-20T08:25:25;96059.88;;;7.93;92.41
2000;BME280;1001;48.87406500;9.59633600;2023-02-20T08:27:55;96058.13;;;8.00;91.04
2000;BME280;1001;48.87406500;9.59633600;2023-02-20T08:30:24;96058.88;;;7.94;90.88
2000;BME280;1001;48.87406500;9.59633600;2023-02-20T08:32:51;96064.56;;;8.04;91.28
2000;BME280;1001;48.87406500;9.59633600;2023-02-20T08:35:19;96060.69;;;7.93;90.56
2000;BME280;1001;48.87406500;9.59633600;2023-02-20T08:37:48;96040.28;;;7.97;90.26
2000;BME280;1001;48.87406500;9.59633600;2023-02-20T08:40:16;96055.25;;;8.16;91.16
2000;BME280;1001;48.87406500;9.59633600;2023-02-20T08:42:42;96068.00;;;8.32;89.91
2000;BME280;1001;48.87406500;9.59633600;2023-02-20T08:45:10;96056.22;;;8.43;89.41
2000;BME280;1001;48.87406500;9.59633600;2023-02-20T08:47:36;96065.59;;;8.65;89.62
2000;BME280;1001;48.87406500;9.59633600;2023-02-20T08:50:03;96057.78;;;8.71;88.75
2000;BME280;1001;48.87406500;9.59633600;2023-02-20T08:52:30;96065.09;;;8.82;88.04
2000;BME280;1001;48.87406500;9.59633600;2023-02-20T08:54:57;96059.81;;;8.76;87.54
2000;BME280;1001;48.87406500;9.59633600;2023-02-20T08:57:25;96053.78;;;8.75;88.04
2000;BME280;1001;48.87406500;9.59633600;2023-02-20T08:59:51;96045.19;;;8.75;86.48
2000;BME280;1001;48.87406500;9.59633600;2023-02-20T09:02:20;96045.81;;;8.83;87.04
2000;BME280;1001;48.87406500;9.59633600;2023-02-20T09:04:50;96051.28;;;8.95;85.81
2000;BME280;1001;48.87406500;9.59633600;2023-02-20T09:07:17;96053.06;;;8.95;86.04
2000;BME280;1001;48.87406500;9.59633600;2023-02-20T09:09:44;96052.56;;;9.19;85.69
2000;BME280;1001;48.87406500;9.59633600;2023-02-20T09:12:11;96049.28;;;8.97;84.93
2000;BME280;1001;48.87406500;9.59633600;2023-02-20T09:14:39;96043.44;;;8.95;84.12
2000;BME280;1001;48.87406500;9.59633600;2023-02-20T09:17:06;96049.13;;;9.05;85.69
2000;BME280;1001;48.87406500;9.59633600;2023-02-20T09:19:33;96043.38;;;9.42;85.65
2000;BME280;1001;48.87406500;9.59633600;2023-02-20T09:21:59;96041.56;;;9.30;83.11
2000;BME280;1001;48.87406500;9.59633600;2023-02-20T09:24:26;96044.19;;;9.30;82.23
2000;BME280;1001;48.87406500;9.59633600;2023-02-20T09:26:56;96040.78;;;9.49;83.09
2000;BME280;1001;48.87406500;9.59633600;2023-02-20T09:29:23;96033.38;;;9.66;82.47
2000;BME280;1001;48.87406500;9.59633600;2023-02-20T09:31:51;96028.75;;;10.00;82.08
2000;BME280;1001;48.87406500;9.59633600;2023-02-20T09:34:18;96022.50;;;10.01;80.72
2000;BME280;1001;48.87406500;9.59633600;2023-02-20T09:36:44;96022.53;;;10.21;79.55
2000;BME280;1001;48.87406500;9.59633600;2023-02-20T09:39:11;96020.94;;;10.27;80.64
2000;BME280;1001;48.87406500;9.59633600;2023-02-20T09:41:51;96021.53;;;10.29;78.96
2000;BME280;1001;48.87406500;9.59633600;2023-02-20T09:44:25;96026.56;;;10.23;78.21
2000;BME280;1001;48.87406500;9.59633600;2023-02-20T09:47:01;96021.72;;;10.34;78.77
2000;BME280;1001;48.87406500;9.59633600;2023-02-20T09:49:31;96012.25;;;10.06;77.34
2000;BME280;1001;48.87406500;9.59633600;2023-02-20T09:52:02;96012.84;;;10.48;79.72
2000;BME280;1001;48.87406500;9.59633600;2023-02-20T09:54:32;96002.97;;;10.37;78.16
2000;BME280;1001;48.87406500;9.59633600;2023-02-20T09:57:02;96008.44;;;10.29;77.19
2000;BME280;1001;48.87406500;9.59633600;2023-02-20T09:59:32;96007.66;;;10.28;79.50
2000;BME280;1001;48.87406500;9.59633600;2023-02-20T10:02:11;96001.63;;;9.95;76.48
2000;BME280;1001;48.87406500;9.59633600;2023-02-20T10:04:43;96008.28;;;9.84;78.83
2000;BME280;1001;48.87406500;9.59633600;2023-02-20T10:07:15;96002.03;;;10.05;78.22
2000;BME280;1001;48.87406500;9.59633600;2023-02-20T10:09:46;96004.81;;;10.30;78.90
2000;BME280;1001;48.87406500;9.59633600;2023-02-20T10:12:20;95998.75;;;10.42;78.54
2000;BME280;1001;48.87406500;9.59633600;2023-02-20T10:15:02;95988.69;;;10.39;77.22
2000;BME280;1001;48.87406500;9.59633600;2023-02-20T10:17:42;95983.00;;;10.62;78.14
2000;BME280;1001;48.87406500;9.59633600;2023-02-20T10:20:19;95996.59;;;10.26;76.51
2000;BME280;1001;48.87406500;9.59633600;2023-02-20T10:22:52;95992.09;;;10.46;77.91
2000;BME280;1001;48.87406500;9.59633600;2023-02-20T10:25:25;95995.16;;;10.37;77.44
2000;BME280;1001;48.87406500;9.59633600;2023-02-20T10:27:58;95987.94;;;10.25;77.95
2000;BME280;1001;48.87406500;9.59633600;2023-02-20T10:30:30;95990.56;;;10.06;76.11
2000;BME280;1001;48.87406500;9.59633600;2023-02-20T10:33:03;95998.81;;;10.16;78.28
2000;BME280;1001;48.87406500;9.59633600;2023-02-20T10:35:43;95996.78;;;10.24;77.27
2000;BME280;1001;48.87406500;9.59633600;2023-02-20T10:38:14;96001.78;;;10.46;77.74
2000;BME280;1001;48.87406500;9.59633600;2023-02-20T10:40:47;95996.09;;;10.55;76.97
2000;BME280;1001;48.87406500;9.59633600;2023-02-20T10:43:20;95986.47;;;10.49;75.82
2000;BME280;1001;48.87406500;9.59633600;2023-02-20T10:45:53;95995.50;;;10.60;76.03
2000;BME280;1001;48.87406500;9.59633600;2023-02-20T10:48:25;95989.50;;;10.46;74.74
2000;BME280;1001;48.87406500;9.59633600;2023-02-20T10:51:03;95992.81;;;10.73;77.40
2000;BME280;1001;48.87406500;9.59633600;2023-02-20T10:53:38;95988.25;;;10.55;76.32
2000;BME280;1001;48.87406500;9.59633600;2023-02-20T10:56:10;95991.25;;;10.59;76.16
2000;BME280;1001;48.87406500;9.59633600;2023-02-20T10:58:44;95980.66;;;10.47;73.56
2000;BME280;1001;48.87406500;9.59633600;2023-02-20T11:01:19;95981.75;;;10.71;77.21
2000;BME280;1001;48.87406500;9.59633600;2023-02-20T11:03:53;95976.41;;;10.97;77.16
2000;BME280;1001;48.87406500;9.59633600;2023-02-20T11:06:25;95979.25;;;10.89;75.59
2000;BME280;1001;48.87406500;9.59633600;2023-02-20T11:08:54;95983.47;;;10.97;76.24
2000;BME280;1001;48.87406500;9.59633600;2023-02-20T11:11:29;95972.41;;;10.94;75.14
2000;BME280;1001;48.87406500;9.59633600;2023-02-20T11:13:58;95971.19;;;10.97;75.75
2000;BME280;1001;48.87406500;9.59633600;2023-02-20T11:16:29;95975.44;;;10.91;73.77
2000;BME280;1001;48.87406500;9.59633600;2023-02-20T11:19:05;95972.47;;;10.75;72.29
2000;BME280;1001;48.87406500;9.59633600;2023-02-20T11:21:38;95960.50;;;10.99;73.96
2000;BME280;1001;48.87406500;9.59633600;2023-02-20T11:24:22;95966.78;;;11.22;74.87
2000;BME280;1001;48.87406500;9.59633600;2023-02-20T11:26:55;95962.38;;;11.23;73.47
2000;BME280;1001;48.87406500;9.59633600;2023-02-20T11:29:22;95951.44;;;11.32;74.70
2000;BME280;1001;48.87406500;9.59633600;2023-02-20T11:31:49;95942.66;;;11.20;72.73
2000;BME280;1001;48.87406500;9.59633600;2023-02-20T11:34:20;95948.22;;;11.30;72.80
2000;BME280;1001;48.87406500;9.59633600;2023-02-20T11:36:50;95932.41;;;11.12;71.33
2000;BME280;1001;48.87406500;9.59633600;2023-02-20T11:39:23;95936.41;;;11.21;72.89
2000;BME280;1001;48.87406500;9.59633600;2023-02-20T11:42:05;95936.41;;;11.46;71.46
2000;BME280;1001;48.87406500;9.59633600;2023-02-20T11:44:32;95929.78;;;11.43;71.40
2000;BME280;1001;48.87406500;9.59633600;2023-02-20T11:47:17;95932.84;;;11.65;72.07
2000;BME280;1001;48.87406500;9.59633600;2023-02-20T11:49:47;95925.31;;;11.26;69.89
2000;BME280;1001;48.87406500;9.59633600;2023-02-20T11:52:19;95930.22;;;11.40;71.45
2000;BME280;1001;48.87406500;9.59633600;2023-02-20T11:54:46;95917.72;;;11.42;70.10
2000;BME280;1001;48.87406500;9.59633600;2023-02-20T11:57:20;95926.09;;;11.51;71.21
2000;BME280;1001;48.87406500;9.59633600;2023-02-20T11:59:50;95913.53;;;11.35;68.87
2000;BME280;1001;48.87406500;9.59633600;2023-02-20T12:02:26;95918.41;;;11.56;69.05